Time;durP1;ratioP1;P1;durP2;ratioP2;P2;SDS_P1;SDS_P2;PMS_P1;PMS_P2;Temp;Humidity;BMP_temperature;BMP_pressure;BME280_temperature;BME280_humidity;BME280_pressure;Samples;Min_cycle;Max_cycle;Signal;HPM_P1;HPM_P2
2021/06/22 04:58:27;;;;;;;15.32;3.27;;;;;;;29.06;45.32;100120.55;1850040;77;21986;-72
2021/06/22 05:00:54;;;;;;;18.35;3.87;;;;;;;29.35;44.96;100120.67;1787266;80;21016;-72
2021/06/22 05:03:23;;;;;;;20.25;4.37;;;;;;;29.71;44.28;100109.53;1827857;78;21122;-73
2021/06/22 05:05:50;;;;;;;16.65;3.45;;;;;;;30.05;43.77;100110.31;1828055;78;21008;-72
2021/06/22 05:08:18;;;;;;;10.30;3.42;;;;;;;30.47;42.37;100108.41;1837583;77;20908;-72
2021/06/22 05:10:47;;;;;;;10.20;3.70;;;;;;;30.64;41.45;100110.64;1785984;77;21036;-72
2021/06/22 05:13:14;;;;;;;9.45;3.17;;;;;;;30.62;41.17;100110.03;1814764;77;20938;-74
2021/06/22 05:15:49;;;;;;;7.05;3.02;;;;;;;30.61;40.88;100107.03;1814325;77;21134;-74
2021/06/22 05:18:16;;;;;;;11.38;3.58;;;;;;;30.61;40.74;100100.31;1817756;77;20969;-71
2021/06/22 05:20:44;;;;;;;8.70;3.33;;;;;;;30.68;40.92;100107.31;1809422;77;20933;-74
2021/06/22 05:23:15;;;;;;;13.13;3.08;;;;;;;30.79;40.81;100108.50;1812943;77;21318;-75
2021/06/22 05:25:43;;;;;;;11.53;3.27;;;;;;;30.83;40.41;100097.07;1783568;78;20946;-73
2021/06/22 05:28:13;;;;;;;7.37;3.27;;;;;;;30.91;40.34;100105.41;1814744;77;21544;-71
2021/06/22 05:30:41;;;;;;;8.88;2.83;;;;;;;30.90;40.32;100100.23;1828529;77;20969;-72
2021/06/22 05:33:09;;;;;;;10.98;3.00;;;;;;;30.82;40.64;100092.73;1821893;76;20988;-70
2021/06/22 05:35:40;;;;;;;9.60;2.90;;;;;;;30.81;40.40;100097.80;1816995;77;21539;-70
2021/06/22 05:38:07;;;;;;;7.80;2.95;;;;;;;30.84;40.53;100090.66;1834831;77;21001;-69
2021/06/22 05:40:35;;;;;;;13.20;3.20;;;;;;;31.07;40.54;100090.09;1847273;77;21111;-72
2021/06/22 05:43:08;;;;;;;8.75;2.95;;;;;;;31.34;39.75;100102.84;1845587;77;21000;-74
2021/06/22 05:45:35;;;;;;;7.60;2.45;;;;;;;31.45;39.53;100094.06;1781343;78;20956;-73
2021/06/22 05:48:15;;;;;;;8.63;3.02;;;;;;;31.58;39.30;100097.16;1822519;77;20878;-71
2021/06/22 05:50:50;;;;;;;10.38;2.80;;;;;;;31.59;39.15;100094.74;1791778;78;21064;-74
2021/06/22 05:53:18;;;;;;;5.47;2.60;;;;;;;31.70;39.00;100082.45;1804374;77;21979;-71
2021/06/22 05:55:46;;;;;;;13.22;3.20;;;;;;;31.92;38.85;100085.56;1791817;78;20980;-70
2021/06/22 05:58:14;;;;;;;12.25;2.80;;;;;;;32.17;37.54;100082.25;1807143;78;20932;-71
2021/06/22 06:00:41;;;;;;;8.68;3.27;;;;;;;32.28;37.16;100083.40;1820303;77;20993;-72
2021/06/22 06:03:10;;;;;;;9.73;3.02;;;;;;;32.33;37.20;100088.41;1837199;77;20946;-71
2021/06/22 06:05:45;;;;;;;11.75;2.70;;;;;;;32.42;36.58;100088.37;1810818;77;21117;-69
2021/06/22 06:08:12;;;;;;;8.38;2.83;;;;;;;32.51;36.03;100093.45;1803173;77;21020;-68
2021/06/22 06:10:41;;;;;;;13.53;2.92;;;;;;;32.53;35.95;100081.92;1796649;77;21500;-71
2021/06/22 06:13:11;;;;;;;9.13;2.77;;;;;;;32.60;36.00;100089.40;1811351;77;20946;-73
2021/06/22 06:15:40;;;;;;;10.55;3.17;;;;;;;32.79;35.76;100088.34;1805561;77;20942;-74
2021/06/22 06:18:15;;;;;;;10.43;3.00;;;;;;;32.91;34.98;100090.52;1807370;77;21132;-74
2021/06/22 06:20:51;;;;;;;11.73;3.12;;;;;;;32.92;35.16;100092.69;1800664;77;21428;-70
2021/06/22 06:23:19;;;;;;;7.72;2.83;;;;;;;32.92;35.22;100095.39;1782340;79;20943;-72
2021/06/22 06:25:57;;;;;;;8.70;2.87;;;;;;;32.88;35.37;100099.59;1767075;80;21033;-71
2021/06/22 06:28:33;;;;;;;8.83;3.95;;;;;;;32.88;35.01;100107.69;1748453;78;20962;-71
2021/06/22 06:30:59;;;;;;;8.30;3.05;;;;;;;32.93;34.99;100114.05;1776484;79;21565;-71
2021/06/22 06:33:26;;;;;;;10.93;3.22;;;;;;;32.99;35.03;100118.52;1767528;80;20984;-71
2021/06/22 06:35:54;;;;;;;18.90;2.90;;;;;;;33.04;35.09;100111.91;1788394;80;20928;-71
2021/06/22 06:38:22;;;;;;;7.10;2.83;;;;;;;33.13;34.89;100119.16;1781591;80;21016;-71
2021/06/22 06:40:49;;;;;;;12.93;2.92;;;;;;;33.27;34.40;100121.09;1777508;80;20955;-72
2021/06/22 06:43:16;;;;;;;8.93;2.83;;;;;;;33.42;34.17;100117.46;1790651;79;21070;-71
2021/06/22 06:45:43;;;;;;;17.75;3.27;;;;;;;33.51;34.56;100117.41;1788516;80;21010;-75
2021/06/22 06:48:12;;;;;;;14.38;3.55;;;;;;;33.65;34.35;100113.94;1766725;80;20924;-72
2021/06/22 06:50:39;;;;;;;10.63;3.12;;;;;;;33.83;33.31;100113.03;1779131;80;20998;-73
2021/06/22 06:53:09;;;;;;;13.22;3.62;;;;;;;33.87;33.23;100104.75;1789103;80;20947;-70
2021/06/22 06:55:47;;;;;;;19.50;3.70;;;;;;;33.86;33.15;100108.51;1777340;80;21610;-73
2021/06/22 06:58:14;;;;;;;13.22;3.52;;;;;;;33.87;33.57;100109.62;1758341;79;21556;-79
2021/06/22 07:00:41;;;;;;;13.20;3.70;;;;;;;33.81;33.08;100100.29;1782222;79;20986;-72
2021/06/22 07:03:16;;;;;;;8.25;2.95;;;;;;;33.73;33.47;100113.06;1790104;79;20963;-73
2021/06/22 07:05:49;;;;;;;13.78;2.75;;;;;;;33.68;34.06;100102.66;1775270;79;21001;-75
2021/06/22 07:08:18;;;;;;;21.15;3.62;;;;;;;33.78;34.31;100101.02;1780055;79;21651;-74
2021/06/22 07:10:48;;;;;;;11.83;2.52;;;;;;;33.89;33.57;100105.34;1779623;79;21860;-73
2021/06/22 07:13:16;;;;;;;13.15;3.20;;;;;;;33.79;33.47;100096.47;1779896;79;20974;-72
2021/06/22 07:15:49;;;;;;;13.30;3.50;;;;;;;33.66;33.64;100106.95;1785765;79;21603;-74
2021/06/22 07:18:16;;;;;;;12.50;3.87;;;;;;;33.61;33.84;100116.28;1784796;79;20903;-75
2021/06/22 07:20:43;;;;;;;20.35;3.40;;;;;;;33.59;34.15;100119.74;1783692;79;21121;-73
2021/06/22 07:23:11;;;;;;;21.30;4.08;;;;;;;33.62;34.39;100116.58;1781651;79;21006;-74
2021/06/22 07:25:45;;;;;;;9.33;3.15;;;;;;;33.70;34.74;100118.11;1776128;79;21607;-73
2021/06/22 07:28:13;;;;;;;13.88;3.22;;;;;;;33.70;34.59;100109.48;1782733;79;21017;-76
2021/06/22 07:30:41;;;;;;;23.12;5.37;;;;;;;33.70;35.01;100117.58;1781024;79;20985;-74
2021/06/22 07:33:08;;;;;;;20.80;4.78;;;;;;;33.67;34.49;100118.05;1779614;79;21034;-74
2021/06/22 07:35:37;;;;;;;25.12;8.23;;;;;;;33.67;34.51;100118.58;1777510;79;21083;-74
2021/06/22 07:38:04;;;;;;;20.43;4.85;;;;;;;33.79;34.49;100109.98;1790597;79;21030;-75
2021/06/22 07:40:32;;;;;;;13.80;4.15;;;;;;;33.95;33.83;100111.15;1779199;79;21632;-74
2021/06/22 07:42:59;;;;;;;14.98;4.03;;;;;;;34.01;33.65;100123.69;1790182;79;20927;-71
2021/06/22 07:45:31;;;;;;;20.72;4.70;;;;;;;34.01;33.72;100119.63;1797527;79;20904;-73
2021/06/22 07:48:00;;;;;;;26.93;5.03;;;;;;;33.92;32.55;100119.20;1765850;79;21469;-72
2021/06/22 07:50:29;;;;;;;20.70;4.62;;;;;;;33.75;32.95;100127.68;1785292;79;21540;-73
2021/06/22 07:52:56;;;;;;;16.52;4.10;;;;;;;33.52;33.15;100124.46;1788604;79;20987;-71
2021/06/22 07:55:30;;;;;;;24.10;5.28;;;;;;;33.36;33.52;100114.34;1785055;79;21522;-73
2021/06/22 07:58:18;;;;;;;26.97;5.17;;;;;;;33.33;33.77;100121.55;1782680;79;21117;-75
2021/06/22 08:00:46;;;;;;;29.00;5.72;;;;;;;33.35;33.52;100127.02;1765808;79;21037;-71
2021/06/22 08:03:16;;;;;;;27.77;5.50;;;;;;;33.39;33.64;100126.02;1757184;79;21475;-73
2021/06/22 08:05:44;;;;;;;24.72;6.33;;;;;;;33.42;33.73;100130.44;1786470;79;20943;-72
2021/06/22 08:08:17;;;;;;;26.52;5.28;;;;;;;33.40;33.75;100128.49;1795294;79;21553;-73
2021/06/22 08:10:46;;;;;;;29.27;5.78;;;;;;;33.40;34.19;100132.54;1795305;79;21022;-71
2021/06/22 08:13:14;;;;;;;32.00;6.33;;;;;;;33.48;33.81;100130.56;1789533;79;20894;-72
2021/06/22 08:15:41;;;;;;;36.95;6.67;;;;;;;33.63;33.64;100136.30;1786351;79;20902;-72
2021/06/22 08:18:13;;;;;;;28.47;6.58;;;;;;;33.72;32.48;100129.50;1775814;79;20986;-75
2021/06/22 08:20:41;;;;;;;35.90;5.70;;;;;;;33.71;32.07;100126.50;1783303;79;20979;-73
2021/06/22 08:23:10;;;;;;;30.32;5.90;;;;;;;33.63;32.58;100130.90;1784203;79;21297;-73
2021/06/22 08:25:38;;;;;;;28.90;5.72;;;;;;;33.63;33.51;100126.32;1798944;79;21063;-73
2021/06/22 08:28:06;;;;;;;33.63;6.22;;;;;;;33.55;34.15;100128.58;1782553;79;21060;-73
2021/06/22 08:30:44;;;;;;;31.50;5.45;;;;;;;33.49;34.17;100130.86;1774916;79;21008;-73
2021/06/22 08:33:12;;;;;;;36.10;6.47;;;;;;;33.49;33.71;100132.20;1783780;79;20974;-71
2021/06/22 08:35:40;;;;;;;28.55;6.60;;;;;;;33.54;33.73;100138.55;1771730;79;21474;-72
2021/06/22 08:38:09;;;;;;;31.65;6.53;;;;;;;33.52;33.21;100133.91;1772720;79;21154;-73
2021/06/22 08:40:42;;;;;;;30.17;6.60;;;;;;;33.41;33.54;100136.89;1788584;79;21002;-72
2021/06/22 08:43:12;;;;;;;38.88;7.00;;;;;;;33.32;33.99;100130.17;1780196;79;20973;-74
2021/06/22 08:45:43;;;;;;;31.45;6.85;;;;;;;33.29;34.37;100132.52;1781907;79;21011;-77
2021/06/22 08:48:12;;;;;;;45.65;7.12;;;;;;;33.37;34.17;100138.93;1742247;80;21093;-72
2021/06/22 08:50:44;;;;;;;35.98;6.50;;;;;;;33.27;33.52;100134.59;1733465;80;21006;-74
2021/06/22 08:53:12;;;;;;;32.13;7.35;;;;;;;33.11;34.25;100145.55;1776192;79;21085;-73
2021/06/22 08:55:46;;;;;;;36.98;7.28;;;;;;;32.95;34.02;100143.48;1774105;80;21639;-71
2021/06/22 08:58:18;;;;;;;35.80;6.55;;;;;;;32.83;34.17;100129.13;1777166;80;21047;-75
2021/06/22 09:00:49;;;;;;;34.20;7.47;;;;;;;32.70;34.58;100142.27;1775779;80;21520;-75
2021/06/22 09:03:22;;;;;;;34.75;6.35;;;;;;;32.56;35.01;100129.47;1779906;80;20981;-74
2021/06/22 09:05:56;;;;;;;35.98;7.20;;;;;;;32.55;35.16;100143.17;1775542;80;21525;-72
2021/06/22 09:08:32;;;;;;;45.10;7.85;;;;;;;32.55;35.25;100139.13;1763347;80;20872;-76
2021/06/22 09:11:35;;;;;;;32.38;5.62;;;;;;;32.47;35.88;100128.13;1784063;80;21559;-79
2021/06/22 09:14:05;;;;;;;44.08;8.35;;;;;;;32.43;34.54;100136.37;1751098;81;21200;-73
2021/06/22 09:16:38;;;;;;;34.00;8.33;;;;;;;32.43;35.21;100136.37;1731791;81;21064;-75
2021/06/22 09:19:10;;;;;;;34.03;6.72;;;;;;;32.44;34.63;100132.09;1720167;80;20899;-75
2021/06/22 09:21:46;;;;;;;34.10;7.22;;;;;;;32.51;34.52;100137.41;1713305;82;21523;-76
2021/06/22 09:24:19;;;;;;;26.77;6.65;;;;;;;32.57;33.98;100135.69;1749590;80;21458;-76
2021/06/22 09:26:53;;;;;;;45.78;7.87;;;;;;;32.57;33.99;100142.42;1757841;80;21103;-80
2021/06/22 09:29:22;;;;;;;29.15;7.08;;;;;;;32.54;33.63;100130.74;1766330;80;21048;-78
2021/06/22 09:31:59;;;;;;;34.38;5.90;;;;;;;32.49;33.70;100136.29;1759172;80;22456;-75
2021/06/22 09:34:28;;;;;;;32.65;6.42;;;;;;;32.47;33.25;100145.13;1749993;80;21484;-76
2021/06/22 09:36:59;;;;;;;37.75;6.60;;;;;;;32.40;33.65;100141.69;1748531;80;20966;-71
2021/06/22 09:39:27;;;;;;;30.85;7.05;;;;;;;32.38;33.13;100144.33;1744907;80;21089;-77
2021/06/22 09:41:56;;;;;;;31.85;5.65;;;;;;;32.34;33.89;100137.22;1749749;80;20963;-81
2021/06/22 09:44:25;;;;;;;41.28;7.35;;;;;;;32.35;33.90;100143.44;1761582;80;21012;-78
2021/06/22 09:46:58;;;;;;;29.85;6.37;;;;;;;32.38;34.13;100144.33;1764493;80;21017;-74
2021/06/22 09:49:36;;;;;;;35.45;7.20;;;;;;;32.42;34.08;100146.33;1761045;80;21003;-73
2021/06/22 09:52:08;;;;;;;35.55;6.97;;;;;;;32.45;33.85;100149.09;1762997;80;22052;-83
2021/06/22 09:54:47;;;;;;;30.97;6.37;;;;;;;32.44;32.72;100150.97;1753119;80;20970;-82
2021/06/22 09:57:21;;;;;;;27.17;6.00;;;;;;;32.39;32.82;100155.41;1754469;80;21507;-77
2021/06/22 09:59:57;;;;;;;32.95;6.67;;;;;;;32.34;32.98;100157.44;1737569;80;20986;-75
2021/06/22 10:02:25;;;;;;;51.83;17.07;;;;;;;32.34;32.57;100154.74;1753927;80;21465;-71
2021/06/22 10:04:59;;;;;;;42.67;12.20;;;;;;;32.35;32.17;100163.13;1754366;80;21639;-70
2021/06/22 10:07:28;;;;;;;32.83;7.47;;;;;;;32.35;32.72;100165.00;1745991;80;21021;-71
2021/06/22 10:09:59;;;;;;;43.42;11.05;;;;;;;32.33;32.32;100165.75;1733084;81;21006;-70
2021/06/22 10:12:30;;;;;;;35.90;10.88;;;;;;;32.28;31.28;100171.80;1745065;81;20983;-70
2021/06/22 10:15:03;;;;;;;46.20;12.73;;;;;;;32.16;30.69;100166.30;1708046;83;21034;-70
2021/06/22 10:17:31;;;;;;;52.75;17.00;;;;;;;32.10;30.06;100180.66;1708023;84;21149;-71
2021/06/22 10:20:03;;;;;;;37.60;10.75;;;;;;;32.04;30.35;100174.81;1708680;84;20999;-70
2021/06/22 10:22:32;;;;;;;72.50;26.35;;;;;;;31.97;30.29;100169.21;1708805;84;20944;-70
2021/06/22 10:25:00;;;;;;;64.12;22.05;;;;;;;31.92;29.98;100167.70;1708636;84;20919;-71
2021/06/22 10:27:28;;;;;;;50.25;15.28;;;;;;;31.83;30.26;100163.13;1688787;84;21006;-70
2021/06/22 10:30:02;;;;;;;28.85;10.23;;;;;;;31.76;30.72;100155.62;1709581;84;21510;-70
2021/06/22 10:32:31;;;;;;;33.35;6.55;;;;;;;31.77;31.03;100158.09;1708999;84;20939;-70
2021/06/22 10:35:01;;;;;;;23.12;5.50;;;;;;;31.87;31.02;100152.20;1736951;80;21014;-70
2021/06/22 10:37:49;;;;;;;21.27;5.47;;;;;;;31.97;31.99;100146.31;1729250;81;21026;-70
2021/06/22 10:40:25;;;;;;;20.10;5.58;;;;;;;32.09;32.43;100140.47;1741264;80;21018;-69
2021/06/22 10:43:01;;;;;;;33.38;6.00;;;;;;;32.26;32.88;100140.21;1734554;81;21797;-73
2021/06/22 10:45:37;;;;;;;30.97;6.58;;;;;;;32.45;32.26;100127.53;1752839;81;21035;-72
2021/06/22 10:48:09;;;;;;;36.80;5.80;;;;;;;32.60;32.50;100131.19;1757457;80;21500;-69
2021/06/22 10:50:36;;;;;;;30.10;5.53;;;;;;;32.74;30.17;100124.05;1725777;81;21016;-70
2021/06/22 10:53:09;;;;;;;25.60;5.30;;;;;;;32.81;29.92;100132.05;1741195;81;20904;-70
2021/06/22 10:55:43;;;;;;;32.95;5.65;;;;;;;32.81;29.42;100118.57;1739251;81;21107;-71
2021/06/22 10:58:13;;;;;;;31.00;7.37;;;;;;;32.74;29.10;100117.31;1745486;81;21058;-71
2021/06/22 11:00:52;;;;;;;25.32;6.30;;;;;;;32.65;29.02;100116.50;1722785;82;20983;-72
2021/06/22 11:03:31;;;;;;;32.80;7.17;;;;;;;32.56;29.76;100105.73;1752261;80;21453;-69
2021/06/22 11:06:16;;;;;;;25.82;7.58;;;;;;;32.49;30.41;100107.16;1725166;81;20931;-72
2021/06/22 11:08:45;;;;;;;27.07;5.08;;;;;;;32.49;29.19;100107.98;1738057;81;20994;-71
2021/06/22 11:11:16;;;;;;;20.48;5.28;;;;;;;32.51;29.34;100101.55;1750805;81;21131;-73
2021/06/22 11:13:55;;;;;;;24.43;5.47;;;;;;;32.51;29.06;100106.41;1718701;82;20967;-72
2021/06/22 11:16:22;;;;;;;24.12;4.87;;;;;;;32.50;28.56;100112.85;1715660;81;21154;-73
2021/06/22 11:18:58;;;;;;;28.00;5.83;;;;;;;32.47;29.39;100096.60;1734905;81;21540;-72
2021/06/22 11:21:36;;;;;;;24.37;4.62;;;;;;;32.52;29.92;100100.49;1745478;81;21098;-71
2021/06/22 11:24:15;;;;;;;27.05;5.53;;;;;;;32.58;29.65;100091.50;1740329;81;20927;-75
2021/06/22 11:26:52;;;;;;;23.27;6.00;;;;;;;32.61;29.71;100093.74;1717654;81;20983;-73
2021/06/22 11:29:25;;;;;;;26.48;5.03;;;;;;;32.60;28.67;100088.05;1745672;81;21288;-77
2021/06/22 11:32:00;;;;;;;14.38;3.98;;;;;;;32.56;28.59;100100.34;1748000;81;20962;-74
2021/06/22 11:34:32;;;;;;;21.55;5.20;;;;;;;32.54;28.55;100107.83;1742161;81;22147;-72
2021/06/22 11:37:09;;;;;;;20.25;4.08;;;;;;;32.54;27.35;100092.48;1744322;81;20963;-76
2021/06/22 11:39:37;;;;;;;20.35;3.75;;;;;;;32.55;26.85;100097.34;1702115;81;21027;-76
2021/06/22 11:42:15;;;;;;;16.80;3.90;;;;;;;32.55;26.38;100094.13;1749826;80;21003;-77
2021/06/22 11:44:52;;;;;;;22.30;4.55;;;;;;;32.57;27.34;100104.68;1743191;80;21421;-74
2021/06/22 11:47:33;;;;;;;19.98;5.40;;;;;;;32.56;28.13;100111.13;1774302;79;21873;-72
2021/06/22 11:50:14;;;;;;;30.48;4.67;;;;;;;32.53;28.95;100100.80;1777611;80;21060;-81
2021/06/22 11:52:52;;;;;;;19.32;4.03;;;;;;;32.53;29.11;100096.75;1775716;80;21270;-72
2021/06/22 11:55:22;;;;;;;34.13;5.70;;;;;;;32.53;29.89;100090.01;1772407;79;20966;-73
2021/06/22 11:57:58;;;;;;;24.70;5.58;;;;;;;32.47;29.89;100088.52;1774881;78;21559;-72
2021/06/22 12:00:32;;;;;;;31.82;5.53;;;;;;;32.41;29.68;100097.51;1776193;79;21108;-78
2021/06/22 12:03:04;;;;;;;26.90;5.53;;;;;;;32.28;29.41;100085.57;1774796;79;20978;-72
2021/06/22 12:05:34;;;;;;;27.07;4.97;;;;;;;32.23;30.24;100092.68;1776937;79;20939;-71
2021/06/22 12:08:12;;;;;;;26.40;5.03;;;;;;;32.25;30.30;100086.02;1763403;80;20985;-70
2021/06/22 12:10:50;;;;;;;24.72;5.17;;;;;;;32.20;30.36;100087.71;1770676;79;20969;-74
2021/06/22 12:13:39;;;;;;;23.45;4.80;;;;;;;32.11;30.78;100083.97;1769085;78;22095;-74
2021/06/22 12:16:23;;;;;;;28.52;5.92;;;;;;;32.08;30.63;100087.63;1772156;80;20934;-72
2021/06/22 12:18:58;;;;;;;22.17;5.67;;;;;;;32.03;30.90;100081.57;1736527;81;20964;-73
2021/06/22 12:21:27;;;;;;;26.60;5.03;;;;;;;32.03;31.12;100084.78;1719366;82;21434;-70
2021/06/22 12:24:06;;;;;;;16.17;4.65;;;;;;;31.95;30.85;100095.36;1707307;82;21014;-70
2021/06/22 12:26:35;;;;;;;21.42;5.08;;;;;;;31.86;30.85;100083.23;1718088;82;21090;-70
2021/06/22 12:29:21;;;;;;;22.48;5.08;;;;;;;31.73;31.58;100081.49;1697313;83;20915;-71
2021/06/22 12:31:59;;;;;;;18.37;4.40;;;;;;;31.68;31.19;100089.41;1691260;82;20956;-73
2021/06/22 12:34:30;;;;;;;20.60;4.17;;;;;;;31.57;30.95;100088.78;1710240;82;21031;-78
2021/06/22 12:36:57;;;;;;;14.18;4.22;;;;;;;31.47;31.05;100081.20;1701286;82;21002;-73
2021/06/22 12:39:35;;;;;;;26.05;5.10;;;;;;;31.41;31.31;100078.57;1723798;82;21093;-71
2021/06/22 12:42:08;;;;;;;17.70;4.55;;;;;;;31.37;30.86;100078.19;1706301;82;21542;-76
2021/06/22 12:44:37;;;;;;;19.95;4.37;;;;;;;31.32;30.80;100078.54;1704298;82;20897;-73
2021/06/22 12:47:10;;;;;;;21.42;5.47;;;;;;;31.30;30.11;100083.31;1779077;79;22158;-74
2021/06/22 12:49:37;;;;;;;22.60;5.28;;;;;;;31.24;29.71;100086.36;1768492;80;21025;-71
2021/06/22 12:52:06;;;;;;;24.90;5.83;;;;;;;31.21;29.74;100094.05;1758333;80;21078;-74
2021/06/22 12:54:36;;;;;;;30.57;7.28;;;;;;;31.15;29.31;100080.45;1765571;80;20877;-75
2021/06/22 12:57:07;;;;;;;35.75;11.75;;;;;;;31.08;29.27;100078.30;1769573;79;21551;-73
2021/06/22 12:59:47;;;;;;;31.23;9.48;;;;;;;31.02;29.61;100080.51;1762442;80;20899;-68
2021/06/22 13:02:14;;;;;;;24.67;7.80;;;;;;;30.97;29.80;100080.34;1764249;80;20998;-72
2021/06/22 13:04:47;;;;;;;28.55;5.92;;;;;;;30.92;30.13;100075.30;1777217;80;21137;-71
2021/06/22 13:07:20;;;;;;;21.82;4.60;;;;;;;30.90;30.37;100077.38;1765406;80;20930;-73
2021/06/22 13:09:48;;;;;;;15.05;3.92;;;;;;;30.89;30.80;100072.53;1778211;80;20967;-75
2021/06/22 13:12:22;;;;;;;18.98;4.45;;;;;;;30.87;30.96;100081.33;1691057;83;20927;-69
2021/06/22 13:14:51;;;;;;;18.10;4.65;;;;;;;30.83;31.16;100077.42;1722931;81;20918;-76
2021/06/22 13:17:27;;;;;;;20.82;5.00;;;;;;;30.80;31.70;100077.86;1749369;81;21185;-70
2021/06/22 13:20:00;;;;;;;20.17;5.33;;;;;;;30.79;32.32;100074.34;1755717;81;20951;-72
2021/06/22 13:22:32;;;;;;;20.48;4.78;;;;;;;30.80;32.40;100075.98;1780039;78;20894;-74
2021/06/22 13:25:04;;;;;;;25.70;4.65;;;;;;;30.78;33.01;100079.97;1773141;78;20990;-76
2021/06/22 13:27:33;;;;;;;18.30;4.20;;;;;;;30.77;33.60;100082.35;1722684;81;21580;-74
2021/06/22 13:30:20;;;;;;;20.12;4.20;;;;;;;30.77;33.89;100090.41;1748035;81;21218;-70
2021/06/22 13:32:58;;;;;;;24.72;4.97;;;;;;;30.78;34.16;100094.75;1706893;81;21045;-76
2021/06/22 13:35:39;;;;;;;27.80;4.83;;;;;;;30.70;34.20;100093.66;1769284;78;20915;-74
2021/06/22 13:38:16;;;;;;;10.78;3.00;;;;;;;30.62;34.20;100088.53;1772562;80;20907;-75
2021/06/22 13:40:57;;;;;;;15.30;3.70;;;;;;;30.53;34.27;100099.48;1774269;78;20847;-74
2021/06/22 13:43:28;;;;;;;18.82;4.42;;;;;;;30.43;33.44;100083.00;1788461;78;21161;-77
2021/06/22 13:45:58;;;;;;;22.70;3.80;;;;;;;30.38;33.75;100105.68;1775473;80;20918;-80
2021/06/22 13:48:32;;;;;;;18.60;3.52;;;;;;;30.32;33.10;100098.98;1743039;81;20987;-78
2021/06/22 13:51:04;;;;;;;23.57;4.00;;;;;;;30.27;33.22;100091.56;1739241;81;21477;-72
2021/06/22 13:53:38;;;;;;;16.30;3.70;;;;;;;30.24;33.43;100096.53;1765888;80;21053;-74
2021/06/22 13:56:16;;;;;;;16.13;4.10;;;;;;;30.22;32.87;100094.05;1734493;80;21107;-76
2021/06/22 13:58:44;;;;;;;17.25;3.27;;;;;;;30.24;33.56;100091.98;1768778;78;20916;-79
2021/06/22 14:01:17;;;;;;;17.92;4.28;;;;;;;30.30;33.59;100090.31;1776726;80;21064;-73
2021/06/22 14:03:44;;;;;;;14.80;3.22;;;;;;;30.32;33.46;100082.86;1766461;78;20962;-78
2021/06/22 14:06:11;;;;;;;15.75;3.37;;;;;;;30.33;33.44;100079.14;1775396;78;21459;-75
2021/06/22 14:08:44;;;;;;;15.60;3.85;;;;;;;30.36;33.92;100090.29;1775861;80;21092;-73
2021/06/22 14:11:14;;;;;;;21.23;3.70;;;;;;;30.36;33.42;100082.23;1778169;80;21433;-74
2021/06/22 14:13:46;;;;;;;30.70;16.10;;;;;;;30.36;33.09;100086.78;1778796;79;20900;-71
2021/06/22 14:16:14;;;;;;;16.50;4.28;;;;;;;30.37;34.01;100083.05;1786086;80;20927;-74
2021/06/22 14:18:43;;;;;;;11.50;3.00;;;;;;;30.40;32.72;100087.45;1749893;81;21108;-74
2021/06/22 14:21:13;;;;;;;16.23;3.15;;;;;;;30.42;32.83;100086.72;1791141;80;21322;-73
2021/06/22 14:23:42;;;;;;;15.00;3.05;;;;;;;30.43;32.76;100088.37;1738974;82;20960;-74
2021/06/22 14:26:09;;;;;;;11.28;2.70;;;;;;;30.44;32.15;100099.94;1779369;80;20927;-79
2021/06/22 14:28:37;;;;;;;11.20;2.62;;;;;;;30.42;31.91;100084.55;1740450;81;20932;-73
2021/06/22 14:31:05;;;;;;;8.13;2.80;;;;;;;30.41;31.96;100095.81;1780378;80;20979;-72
2021/06/22 14:33:32;;;;;;;9.80;2.87;;;;;;;30.41;31.77;100082.38;1740737;81;21728;-70
2021/06/22 14:36:00;;;;;;;10.32;2.22;;;;;;;30.42;31.10;100077.31;1780129;80;20915;-69
2021/06/22 14:38:28;;;;;;;6.47;2.17;;;;;;;30.44;31.12;100090.53;1740411;81;20980;-68
2021/06/22 14:40:56;;;;;;;12.55;2.50;;;;;;;30.44;30.01;100085.98;1713416;82;21028;-72
2021/06/22 14:43:23;;;;;;;9.70;2.55;;;;;;;30.43;29.75;100093.74;1752596;80;20878;-79
2021/06/22 14:45:51;;;;;;;10.78;2.60;;;;;;;30.44;29.45;100083.82;1740451;82;21542;-72
2021/06/22 14:48:18;;;;;;;5.17;1.95;;;;;;;30.46;29.15;100095.18;1785729;80;21678;-72
2021/06/22 14:50:45;;;;;;;4.45;1.50;;;;;;;30.48;28.26;100093.93;1792676;80;21528;-74
2021/06/22 14:53:12;;;;;;;9.25;1.80;;;;;;;30.47;28.46;100095.48;1792488;80;20985;-71
2021/06/22 14:55:40;;;;;;;6.60;1.90;;;;;;;30.48;28.60;100092.59;1793082;80;21552;-73
2021/06/22 14:58:15;;;;;;;15.72;2.10;;;;;;;30.50;27.63;100117.38;1793213;80;21102;-72
2021/06/22 15:00:45;;;;;;;6.45;1.90;;;;;;;30.49;28.29;100099.61;1791870;80;21532;-74
2021/06/22 15:03:14;;;;;;;3.95;1.72;;;;;;;30.50;28.62;100097.75;1793013;80;20954;-78
2021/06/22 15:05:45;;;;;;;9.63;2.30;;;;;;;30.51;28.93;100101.56;1793098;80;21489;-79
2021/06/22 15:08:12;;;;;;;5.28;1.90;;;;;;;30.52;29.35;100107.25;1792136;80;20919;-75
2021/06/22 15:10:40;;;;;;;4.17;1.70;;;;;;;30.53;29.40;100114.27;1791993;80;20977;-73
2021/06/22 15:13:09;;;;;;;5.28;1.80;;;;;;;30.53;29.32;100120.98;1793544;80;20977;-76
2021/06/22 15:15:36;;;;;;;4.75;2.05;;;;;;;30.51;29.65;100126.27;1792797;80;20934;-77
2021/06/22 15:18:04;;;;;;;7.70;2.25;;;;;;;30.49;29.57;100118.42;1792954;80;20930;-80
2021/06/22 15:20:33;;;;;;;6.55;3.25;;;;;;;30.48;29.83;100115.42;1792777;80;21555;-79
2021/06/22 15:23:00;;;;;;;17.02;10.05;;;;;;;30.48;30.08;100115.42;1792727;80;20890;-78
2021/06/22 15:25:28;;;;;;;9.50;5.95;;;;;;;30.47;30.20;100109.75;1792816;80;21354;-82
2021/06/22 15:27:55;;;;;;;7.35;3.67;;;;;;;30.46;30.48;100108.09;1792770;80;21441;-73
